sensor_id;sensor_type;location;lat;lon;timestamp;P1;durP1;ratioP1;P2;durP2;ratioP2
37321;SDS011;23697;48.684;9.032;2022-07-06T00:00:20;7.53;;;2.40;;
37321;SDS011;23697;48.684;9.032;2022-07-06T00:02:47;4.20;;;2.30;;
37321;SDS011;23697;48.684;9.032;2022-07-06T00:05:15;6.22;;;2.50;;
37321;SDS011;23697;48.684;9.032;2022-07-06T00:07:42;4.57;;;2.30;;
37321;SDS011;23697;48.684;9.032;2022-07-06T00:10:09;6.05;;;2.42;;
37321;SDS011;23697;48.684;9.032;2022-07-06T00:12:35;4.53;;;2.40;;
37321;SDS011;23697;48.684;9.032;2022-07-06T00:15:02;5.25;;;2.55;;
37321;SDS011;23697;48.684;9.032;2022-07-06T00:17:30;5.85;;;2.63;;
37321;SDS011;23697;48.684;9.032;2022-07-06T00:19:57;4.53;;;2.33;;
37321;SDS011;23697;48.684;9.032;2022-07-06T00:22:25;5.47;;;2.47;;
37321;SDS011;23697;48.684;9.032;2022-07-06T00:24:52;4.57;;;2.60;;
37321;SDS011;23697;48.684;9.032;2022-07-06T00:27:19;4.40;;;2.60;;
37321;SDS011;23697;48.684;9.032;2022-07-06T00:29:46;6.13;;;2.65;;
37321;SDS011;23697;48.684;9.032;2022-07-06T00:32:12;4.68;;;2.50;;
37321;SDS011;23697;48.684;9.032;2022-07-06T00:34:39;5.97;;;2.50;;
37321;SDS011;23697;48.684;9.032;2022-07-06T00:37:06;6.63;;;2.60;;
37321;SDS011;23697;48.684;9.032;2022-07-06T00:39:34;5.45;;;2.40;;
37321;SDS011;23697;48.684;9.032;2022-07-06T00:42:01;4.68;;;2.15;;
37321;SDS011;23697;48.684;9.032;2022-07-06T00:44:28;5.53;;;2.45;;
37321;SDS011;23697;48.684;9.032;2022-07-06T00:46:57;6.38;;;2.50;;
37321;SDS011;23697;48.684;9.032;2022-07-06T00:49:24;5.35;;;2.50;;
37321;SDS011;23697;48.684;9.032;2022-07-06T00:52:08;5.13;;;2.38;;
37321;SDS011;23697;48.684;9.032;2022-07-06T00:54:37;5.18;;;2.40;;
37321;SDS011;23697;48.684;9.032;2022-07-06T00:57:08;4.68;;;2.30;;
37321;SDS011;23697;48.684;9.032;2022-07-06T00:59:35;7.13;;;2.50;;
37321;SDS011;23697;48.684;9.032;2022-07-06T01:02:02;4.35;;;2.50;;
37321;SDS011;23697;48.684;9.032;2022-07-06T01:04:29;5.65;;;2.75;;
37321;SDS011;23697;48.684;9.032;2022-07-06T01:06:56;7.28;;;2.60;;
37321;SDS011;23697;48.684;9.032;2022-07-06T01:09:24;5.05;;;2.53;;
37321;SDS011;23697;48.684;9.032;2022-07-06T01:11:52;6.50;;;2.40;;
37321;SDS011;23697;48.684;9.032;2022-07-06T01:14:20;3.85;;;2.47;;
37321;SDS011;23697;48.684;9.032;2022-07-06T01:16:47;7.38;;;2.53;;
37321;SDS011;23697;48.684;9.032;2022-07-06T01:19:14;3.58;;;2.38;;
37321;SDS011;23697;48.684;9.032;2022-07-06T01:21:43;4.88;;;2.60;;
37321;SDS011;23697;48.684;9.032;2022-07-06T01:24:09;7.90;;;2.60;;
37321;SDS011;23697;48.684;9.032;2022-07-06T01:26:36;3.85;;;2.50;;
37321;SDS011;23697;48.684;9.032;2022-07-06T01:29:03;5.35;;;2.60;;
37321;SDS011;23697;48.684;9.032;2022-07-06T01:31:30;7.05;;;2.60;;
37321;SDS011;23697;48.684;9.032;2022-07-06T01:33:57;4.05;;;2.45;;
37321;SDS011;23697;48.684;9.032;2022-07-06T01:36:24;5.97;;;2.40;;
37321;SDS011;23697;48.684;9.032;2022-07-06T01:38:53;4.82;;;2.20;;
37321;SDS011;23697;48.684;9.032;2022-07-06T01:41:23;10.77;;;2.50;;
37321;SDS011;23697;48.684;9.032;2022-07-06T01:43:50;4.15;;;2.53;;
37321;SDS011;23697;48.684;9.032;2022-07-06T01:46:17;4.85;;;2.40;;
37321;SDS011;23697;48.684;9.032;2022-07-06T01:48:44;5.97;;;2.38;;
37321;SDS011;23697;48.684;9.032;2022-07-06T01:51:11;3.92;;;2.30;;
37321;SDS011;23697;48.684;9.032;2022-07-06T01:53:38;5.05;;;2.25;;
37321;SDS011;23697;48.684;9.032;2022-07-06T01:56:07;4.85;;;2.30;;
37321;SDS011;23697;48.684;9.032;2022-07-06T01:58:34;5.95;;;2.40;;
37321;SDS011;23697;48.684;9.032;2022-07-06T02:01:06;3.90;;;2.40;;
37321;SDS011;23697;48.684;9.032;2022-07-06T02:03:33;4.20;;;2.35;;
37321;SDS011;23697;48.684;9.032;2022-07-06T02:06:00;3.70;;;2.30;;
37321;SDS011;23697;48.684;9.032;2022-07-06T02:08:27;4.00;;;2.17;;
37321;SDS011;23697;48.684;9.032;2022-07-06T02:10:54;6.38;;;2.50;;
37321;SDS011;23697;48.684;9.032;2022-07-06T02:13:23;4.97;;;2.38;;
37321;SDS011;23697;48.684;9.032;2022-07-06T02:15:52;4.38;;;2.33;;
37321;SDS011;23697;48.684;9.032;2022-07-06T02:18:19;6.38;;;2.50;;
37321;SDS011;23697;48.684;9.032;2022-07-06T02:20:46;4.63;;;2.42;;
37321;SDS011;23697;48.684;9.032;2022-07-06T02:23:13;6.43;;;2.50;;
37321;SDS011;23697;48.684;9.032;2022-07-06T02:25:40;5.15;;;2.42;;
37321;SDS011;23697;48.684;9.032;2022-07-06T02:28:07;5.22;;;2.33;;
37321;SDS011;23697;48.684;9.032;2022-07-06T02:30:35;4.03;;;2.72;;
37321;SDS011;23697;48.684;9.032;2022-07-06T02:33:02;6.03;;;2.40;;
37321;SDS011;23697;48.684;9.032;2022-07-06T02:35:29;6.57;;;2.72;;
37321;SDS011;23697;48.684;9.032;2022-07-06T02:37:56;3.70;;;2.17;;
37321;SDS011;23697;48.684;9.032;2022-07-06T02:40:23;6.63;;;2.40;;
37321;SDS011;23697;48.684;9.032;2022-07-06T02:42:50;4.68;;;2.40;;
37321;SDS011;23697;48.684;9.032;2022-07-06T02:45:16;5.07;;;2.53;;
37321;SDS011;23697;48.684;9.032;2022-07-06T02:47:45;5.55;;;2.50;;
37321;SDS011;23697;48.684;9.032;2022-07-06T02:50:11;7.82;;;2.60;;
37321;SDS011;23697;48.684;9.032;2022-07-06T02:52:38;5.28;;;2.50;;
37321;SDS011;23697;48.684;9.032;2022-07-06T02:55:05;5.75;;;2.40;;
37321;SDS011;23697;48.684;9.032;2022-07-06T02:57:33;6.00;;;2.60;;
37321;SDS011;23697;48.684;9.032;2022-07-06T03:00:00;6.75;;;2.70;;
37321;SDS011;23697;48.684;9.032;2022-07-06T03:02:27;4.35;;;2.58;;
37321;SDS011;23697;48.684;9.032;2022-07-06T03:04:56;6.75;;;2.50;;
37321;SDS011;23697;48.684;9.032;2022-07-06T03:07:22;8.60;;;2.90;;
37321;SDS011;23697;48.684;9.032;2022-07-06T03:09:49;5.25;;;2.42;;
37321;SDS011;23697;48.684;9.032;2022-07-06T03:12:16;5.93;;;2.53;;
37321;SDS011;23697;48.684;9.032;2022-07-06T03:14:43;4.97;;;2.67;;
37321;SDS011;23697;48.684;9.032;2022-07-06T03:17:10;5.05;;;2.65;;
37321;SDS011;23697;48.684;9.032;2022-07-06T03:19:37;7.05;;;2.90;;
37321;SDS011;23697;48.684;9.032;2022-07-06T03:22:05;4.75;;;2.78;;
37321;SDS011;23697;48.684;9.032;2022-07-06T03:24:32;9.05;;;3.00;;
37321;SDS011;23697;48.684;9.032;2022-07-06T03:26:59;4.75;;;2.83;;
37321;SDS011;23697;48.684;9.032;2022-07-06T03:29:26;7.60;;;2.92;;
37321;SDS011;23697;48.684;9.032;2022-07-06T03:31:53;4.28;;;2.80;;
37321;SDS011;23697;48.684;9.032;2022-07-06T03:34:20;5.28;;;3.08;;
37321;SDS011;23697;48.684;9.032;2022-07-06T03:36:46;6.28;;;3.17;;
37321;SDS011;23697;48.684;9.032;2022-07-06T03:39:15;6.00;;;3.33;;
37321;SDS011;23697;48.684;9.032;2022-07-06T03:41:41;6.57;;;3.33;;
37321;SDS011;23697;48.684;9.032;2022-07-06T03:44:08;6.68;;;3.50;;
37321;SDS011;23697;48.684;9.032;2022-07-06T03:46:35;7.07;;;3.20;;
37321;SDS011;23697;48.684;9.032;2022-07-06T03:49:02;7.40;;;3.45;;
37321;SDS011;23697;48.684;9.032;2022-07-06T03:51:29;6.28;;;3.45;;
37321;SDS011;23697;48.684;9.032;2022-07-06T03:53:56;6.80;;;3.50;;
37321;SDS011;23697;48.684;9.032;2022-07-06T03:56:24;8.07;;;3.35;;
37321;SDS011;23697;48.684;9.032;2022-07-06T04:01:20;9.85;;;3.70;;
37321;SDS011;23697;48.684;9.032;2022-07-06T04:03:47;7.82;;;3.53;;
37321;SDS011;23697;48.684;9.032;2022-07-06T04:06:14;6.63;;;3.70;;
37321;SDS011;23697;48.684;9.032;2022-07-06T04:08:41;5.90;;;3.67;;
37321;SDS011;23697;48.684;9.032;2022-07-06T04:11:08;8.00;;;3.60;;
37321;SDS011;23697;48.684;9.032;2022-07-06T04:13:36;7.80;;;4.00;;
37321;SDS011;23697;48.684;9.032;2022-07-06T04:16:04;7.50;;;3.72;;
37321;SDS011;23697;48.684;9.032;2022-07-06T04:18:31;6.50;;;3.72;;
37321;SDS011;23697;48.684;9.032;2022-07-06T04:20:58;6.47;;;3.78;;
37321;SDS011;23697;48.684;9.032;2022-07-06T04:23:25;9.52;;;4.22;;
37321;SDS011;23697;48.684;9.032;2022-07-06T04:25:52;9.38;;;4.10;;
37321;SDS011;23697;48.684;9.032;2022-07-06T04:28:19;8.05;;;4.22;;
37321;SDS011;23697;48.684;9.032;2022-07-06T04:30:47;8.70;;;4.22;;
37321;SDS011;23697;48.684;9.032;2022-07-06T04:33:14;6.97;;;4.07;;
37321;SDS011;23697;48.684;9.032;2022-07-06T04:35:41;7.05;;;3.95;;
37321;SDS011;23697;48.684;9.032;2022-07-06T04:38:07;8.52;;;4.65;;
37321;SDS011;23697;48.684;9.032;2022-07-06T04:40:34;7.93;;;4.13;;
37321;SDS011;23697;48.684;9.032;2022-07-06T04:43:01;8.35;;;4.50;;
37321;SDS011;23697;48.684;9.032;2022-07-06T04:45:28;7.85;;;4.30;;
37321;SDS011;23697;48.684;9.032;2022-07-06T04:47:56;7.60;;;4.40;;
37321;SDS011;23697;48.684;9.032;2022-07-06T04:50:24;7.88;;;4.18;;
37321;SDS011;23697;48.684;9.032;2022-07-06T04:52:51;7.22;;;4.57;;
37321;SDS011;23697;48.684;9.032;2022-07-06T04:55:18;8.70;;;4.63;;
37321;SDS011;23697;48.684;9.032;2022-07-06T04:57:45;8.27;;;4.57;;
37321;SDS011;23697;48.684;9.032;2022-07-06T05:00:12;6.55;;;4.47;;
37321;SDS011;23697;48.684;9.032;2022-07-06T05:02:39;13.02;;;5.10;;
37321;SDS011;23697;48.684;9.032;2022-07-06T05:05:08;9.15;;;4.70;;
37321;SDS011;23697;48.684;9.032;2022-07-06T05:07:35;10.40;;;5.07;;
37321;SDS011;23697;48.684;9.032;2022-07-06T05:10:05;9.27;;;5.00;;
37321;SDS011;23697;48.684;9.032;2022-07-06T05:12:33;12.60;;;5.20;;
37321;SDS011;23697;48.684;9.032;2022-07-06T05:15:00;10.45;;;4.90;;
37321;SDS011;23697;48.684;9.032;2022-07-06T05:17:27;11.75;;;4.85;;
37321;SDS011;23697;48.684;9.032;2022-07-06T05:19:54;11.77;;;4.85;;
37321;SDS011;23697;48.684;9.032;2022-07-06T05:22:22;7.13;;;4.57;;
37321;SDS011;23697;48.684;9.032;2022-07-06T05:24:49;9.57;;;5.00;;
37321;SDS011;23697;48.684;9.032;2022-07-06T05:27:16;7.65;;;4.90;;
37321;SDS011;23697;48.684;9.032;2022-07-06T05:29:43;7.72;;;4.90;;
37321;SDS011;23697;48.684;9.032;2022-07-06T05:32:10;11.30;;;5.00;;
37321;SDS011;23697;48.684;9.032;2022-07-06T05:34:37;6.85;;;4.60;;
37321;SDS011;23697;48.684;9.032;2022-07-06T05:37:05;10.25;;;5.00;;
37321;SDS011;23697;48.684;9.032;2022-07-06T05:39:33;7.97;;;4.70;;
37321;SDS011;23697;48.684;9.032;2022-07-06T05:42:00;7.22;;;4.70;;
37321;SDS011;23697;48.684;9.032;2022-07-06T05:44:27;8.25;;;4.57;;
37321;SDS011;23697;48.684;9.032;2022-07-06T05:46:53;8.18;;;4.28;;
37321;SDS011;23697;48.684;9.032;2022-07-06T05:49:41;11.25;;;4.70;;
37321;SDS011;23697;48.684;9.032;2022-07-06T05:52:25;9.27;;;4.60;;
37321;SDS011;23697;48.684;9.032;2022-07-06T05:54:54;7.75;;;4.15;;
37321;SDS011;23697;48.684;9.032;2022-07-06T05:57:21;7.10;;;4.18;;
37321;SDS011;23697;48.684;9.032;2022-07-06T05:59:47;9.52;;;4.38;;
37321;SDS011;23697;48.684;9.032;2022-07-06T06:02:14;12.23;;;4.43;;
37321;SDS011;23697;48.684;9.032;2022-07-06T06:04:41;8.50;;;4.03;;
37321;SDS011;23697;48.684;9.032;2022-07-06T06:07:08;9.32;;;3.95;;
37321;SDS011;23697;48.684;9.032;2022-07-06T06:09:35;6.22;;;4.18;;
37321;SDS011;23697;48.684;9.032;2022-07-06T06:12:04;6.13;;;3.90;;
37321;SDS011;23697;48.684;9.032;2022-07-06T06:14:31;8.55;;;4.07;;
37321;SDS011;23697;48.684;9.032;2022-07-06T06:16:58;9.32;;;4.00;;
37321;SDS011;23697;48.684;9.032;2022-07-06T06:19:25;5.55;;;3.80;;
37321;SDS011;23697;48.684;9.032;2022-07-06T06:21:52;8.52;;;4.05;;
37321;SDS011;23697;48.684;9.032;2022-07-06T06:24:19;7.88;;;3.88;;
37321;SDS011;23697;48.684;9.032;2022-07-06T06:26:46;10.43;;;4.05;;
37321;SDS011;23697;48.684;9.032;2022-07-06T06:29:14;9.35;;;3.97;;
37321;SDS011;23697;48.684;9.032;2022-07-06T06:31:41;8.50;;;3.65;;
37321;SDS011;23697;48.684;9.032;2022-07-06T06:34:08;6.63;;;3.65;;
37321;SDS011;23697;48.684;9.032;2022-07-06T06:36:35;6.05;;;3.90;;
37321;SDS011;23697;48.684;9.032;2022-07-06T06:39:02;7.22;;;3.40;;
37321;SDS011;23697;48.684;9.032;2022-07-06T06:41:29;7.75;;;3.40;;
37321;SDS011;23697;48.684;9.032;2022-07-06T06:43:56;8.23;;;3.35;;
37321;SDS011;23697;48.684;9.032;2022-07-06T06:46:24;10.52;;;3.30;;
37321;SDS011;23697;48.684;9.032;2022-07-06T06:48:51;9.05;;;3.47;;
37321;SDS011;23697;48.684;9.032;2022-07-06T06:51:18;7.25;;;3.70;;
37321;SDS011;23697;48.684;9.032;2022-07-06T06:53:45;6.25;;;3.33;;
37321;SDS011;23697;48.684;9.032;2022-07-06T06:56:12;8.25;;;3.58;;
37321;SDS011;23697;48.684;9.032;2022-07-06T06:58:39;5.45;;;3.30;;
37321;SDS011;23697;48.684;9.032;2022-07-06T07:01:06;5.47;;;3.35;;
37321;SDS011;23697;48.684;9.032;2022-07-06T07:03:34;9.43;;;3.30;;
37321;SDS011;23697;48.684;9.032;2022-07-06T07:06:01;7.15;;;3.30;;
37321;SDS011;23697;48.684;9.032;2022-07-06T07:08:28;6.60;;;3.05;;
37321;SDS011;23697;48.684;9.032;2022-07-06T07:10:55;7.38;;;3.20;;
37321;SDS011;23697;48.684;9.032;2022-07-06T07:13:22;6.35;;;2.97;;
37321;SDS011;23697;48.684;9.032;2022-07-06T07:15:49;6.95;;;3.22;;
37321;SDS011;23697;48.684;9.032;2022-07-06T07:18:16;5.20;;;3.22;;
37321;SDS011;23697;48.684;9.032;2022-07-06T07:20:44;10.10;;;3.22;;
37321;SDS011;23697;48.684;9.032;2022-07-06T07:23:11;10.07;;;3.50;;
37321;SDS011;23697;48.684;9.032;2022-07-06T07:25:38;6.18;;;2.80;;
37321;SDS011;23697;48.684;9.032;2022-07-06T07:28:05;5.40;;;3.20;;
37321;SDS011;23697;48.684;9.032;2022-07-06T07:30:32;6.68;;;2.97;;
37321;SDS011;23697;48.684;9.032;2022-07-06T07:32:59;7.90;;;3.40;;
37321;SDS011;23697;48.684;9.032;2022-07-06T07:35:26;7.00;;;3.40;;
37321;SDS011;23697;48.684;9.032;2022-07-06T07:37:55;6.45;;;3.20;;
37321;SDS011;23697;48.684;9.032;2022-07-06T07:40:22;7.68;;;3.13;;
37321;SDS011;23697;48.684;9.032;2022-07-06T07:42:49;7.78;;;3.33;;
37321;SDS011;23697;48.684;9.032;2022-07-06T07:45:16;6.63;;;3.20;;
37321;SDS011;23697;48.684;9.032;2022-07-06T07:47:42;5.68;;;2.97;;
37321;SDS011;23697;48.684;9.032;2022-07-06T07:50:09;6.32;;;3.40;;
37321;SDS011;23697;48.684;9.032;2022-07-06T07:52:37;5.43;;;3.00;;
37321;SDS011;23697;48.684;9.032;2022-07-06T07:55:12;9.13;;;3.28;;
37321;SDS011;23697;48.684;9.032;2022-07-06T07:57:39;7.57;;;3.17;;
37321;SDS011;23697;48.684;9.032;2022-07-06T08:00:06;7.13;;;3.10;;
37321;SDS011;23697;48.684;9.032;2022-07-06T08:02:36;11.15;;;3.10;;
37321;SDS011;23697;48.684;9.032;2022-07-06T08:05:03;5.85;;;2.80;;
37321;SDS011;23697;48.684;9.032;2022-07-06T08:07:31;7.53;;;3.05;;
37321;SDS011;23697;48.684;9.032;2022-07-06T08:09:58;5.13;;;2.72;;
37321;SDS011;23697;48.684;9.032;2022-07-06T08:12:27;5.82;;;2.70;;
37321;SDS011;23697;48.684;9.032;2022-07-06T08:14:54;4.68;;;2.88;;
37321;SDS011;23697;48.684;9.032;2022-07-06T08:17:25;10.30;;;3.10;;
37321;SDS011;23697;48.684;9.032;2022-07-06T08:19:55;5.07;;;2.58;;
37321;SDS011;23697;48.684;9.032;2022-07-06T08:22:22;4.47;;;2.80;;
37321;SDS011;23697;48.684;9.032;2022-07-06T08:24:49;7.50;;;3.08;;
37321;SDS011;23697;48.684;9.032;2022-07-06T08:27:18;5.72;;;2.95;;
37321;SDS011;23697;48.684;9.032;2022-07-06T08:29:46;6.45;;;2.85;;
37321;SDS011;23697;48.684;9.032;2022-07-06T08:32:13;4.03;;;2.45;;
37321;SDS011;23697;48.684;9.032;2022-07-06T08:34:40;6.88;;;3.13;;
37321;SDS011;23697;48.684;9.032;2022-07-06T08:37:09;6.72;;;2.85;;
37321;SDS011;23697;48.684;9.032;2022-07-06T08:39:36;6.18;;;2.92;;
37321;SDS011;23697;48.684;9.032;2022-07-06T08:42:05;8.00;;;2.85;;
37321;SDS011;23697;48.684;9.032;2022-07-06T08:44:35;7.43;;;2.97;;
37321;SDS011;23697;48.684;9.032;2022-07-06T08:47:05;7.45;;;3.28;;
37321;SDS011;23697;48.684;9.032;2022-07-06T08:49:32;5.50;;;2.78;;
37321;SDS011;23697;48.684;9.032;2022-07-06T08:52:01;5.82;;;2.70;;
37321;SDS011;23697;48.684;9.032;2022-07-06T08:54:29;8.23;;;2.70;;
37321;SDS011;23697;48.684;9.032;2022-07-06T08:56:56;8.57;;;2.80;;
37321;SDS011;23697;48.684;9.032;2022-07-06T08:59:24;5.85;;;3.00;;
37321;SDS011;23697;48.684;9.032;2022-07-06T09:01:52;5.32;;;2.70;;
37321;SDS011;23697;48.684;9.032;2022-07-06T09:04:22;3.30;;;2.33;;
37321;SDS011;23697;48.684;9.032;2022-07-06T09:06:49;6.65;;;2.90;;
37321;SDS011;23697;48.684;9.032;2022-07-06T09:09:19;11.20;;;2.83;;
37321;SDS011;23697;48.684;9.032;2022-07-06T09:11:47;6.68;;;2.40;;
37321;SDS011;23697;48.684;9.032;2022-07-06T09:14:14;9.32;;;2.60;;
37321;SDS011;23697;48.684;9.032;2022-07-06T09:16:41;4.72;;;2.60;;
37321;SDS011;23697;48.684;9.032;2022-07-06T09:19:10;8.65;;;2.95;;
37321;SDS011;23697;48.684;9.032;2022-07-06T09:21:40;4.43;;;2.60;;
37321;SDS011;23697;48.684;9.032;2022-07-06T09:24:08;5.72;;;2.58;;
37321;SDS011;23697;48.684;9.032;2022-07-06T09:26:36;5.90;;;2.85;;
37321;SDS011;23697;48.684;9.032;2022-07-06T09:29:04;6.93;;;2.72;;
37321;SDS011;23697;48.684;9.032;2022-07-06T09:31:31;6.05;;;2.58;;
37321;SDS011;23697;48.684;9.032;2022-07-06T09:33:59;6.40;;;2.70;;
37321;SDS011;23697;48.684;9.032;2022-07-06T09:36:41;7.65;;;2.70;;
37321;SDS011;23697;48.684;9.032;2022-07-06T09:39:20;9.98;;;3.25;;
37321;SDS011;23697;48.684;9.032;2022-07-06T09:41:49;8.50;;;3.05;;
37321;SDS011;23697;48.684;9.032;2022-07-06T09:44:18;6.60;;;2.92;;
37321;SDS011;23697;48.684;9.032;2022-07-06T09:46:47;9.27;;;2.92;;
37321;SDS011;23697;48.684;9.032;2022-07-06T09:49:16;9.80;;;3.00;;
37321;SDS011;23697;48.684;9.032;2022-07-06T09:51:45;6.53;;;3.00;;
37321;SDS011;23697;48.684;9.032;2022-07-06T09:54:13;6.88;;;2.80;;
37321;SDS011;23697;48.684;9.032;2022-07-06T09:56:42;6.60;;;3.20;;
37321;SDS011;23697;48.684;9.032;2022-07-06T09:59:13;6.78;;;2.70;;
37321;SDS011;23697;48.684;9.032;2022-07-06T10:01:41;7.72;;;2.85;;
37321;SDS011;23697;48.684;9.032;2022-07-06T10:04:09;7.47;;;3.10;;
37321;SDS011;23697;48.684;9.032;2022-07-06T10:06:37;6.72;;;2.90;;
37321;SDS011;23697;48.684;9.032;2022-07-06T10:09:07;5.72;;;2.60;;
37321;SDS011;23697;48.684;9.032;2022-07-06T10:11:37;7.50;;;2.78;;
37321;SDS011;23697;48.684;9.032;2022-07-06T10:16:33;8.60;;;2.72;;
37321;SDS011;23697;48.684;9.032;2022-07-06T10:19:03;9.68;;;3.40;;
37321;SDS011;23697;48.684;9.032;2022-07-06T10:21:31;7.10;;;3.05;;
37321;SDS011;23697;48.684;9.032;2022-07-06T10:23:59;10.02;;;3.30;;
37321;SDS011;23697;48.684;9.032;2022-07-06T10:26:29;5.75;;;3.03;;
37321;SDS011;23697;48.684;9.032;2022-07-06T10:28:57;7.00;;;3.00;;
37321;SDS011;23697;48.684;9.032;2022-07-06T10:31:25;5.47;;;3.25;;
37321;SDS011;23697;48.684;9.032;2022-07-06T10:33:53;7.68;;;3.10;;
37321;SDS011;23697;48.684;9.032;2022-07-06T10:36:21;10.07;;;3.17;;
37321;SDS011;23697;48.684;9.032;2022-07-06T10:38:49;5.95;;;2.75;;
37321;SDS011;23697;48.684;9.032;2022-07-06T10:41:16;9.65;;;3.22;;
37321;SDS011;23697;48.684;9.032;2022-07-06T10:43:45;7.65;;;2.83;;
37321;SDS011;23697;48.684;9.032;2022-07-06T10:46:14;9.10;;;3.30;;
37321;SDS011;23697;48.684;9.032;2022-07-06T10:48:42;8.93;;;3.15;;
37321;SDS011;23697;48.684;9.032;2022-07-06T10:51:10;8.98;;;3.10;;
37321;SDS011;23697;48.684;9.032;2022-07-06T10:53:38;8.50;;;3.25;;
37321;SDS011;23697;48.684;9.032;2022-07-06T10:56:07;8.82;;;3.20;;
37321;SDS011;23697;48.684;9.032;2022-07-06T11:01:18;7.93;;;3.70;;
37321;SDS011;23697;48.684;9.032;2022-07-06T11:03:46;6.18;;;3.08;;
37321;SDS011;23697;48.684;9.032;2022-07-06T11:06:25;6.15;;;3.05;;
37321;SDS011;23697;48.684;9.032;2022-07-06T11:09:00;8.88;;;3.17;;
37321;SDS011;23697;48.684;9.032;2022-07-06T11:11:37;10.00;;;3.67;;
37321;SDS011;23697;48.684;9.032;2022-07-06T11:14:09;5.80;;;3.38;;
37321;SDS011;23697;48.684;9.032;2022-07-06T11:16:39;9.77;;;3.65;;
37321;SDS011;23697;48.684;9.032;2022-07-06T11:19:26;10.18;;;4.03;;
37321;SDS011;23697;48.684;9.032;2022-07-06T11:21:53;10.40;;;3.60;;
37321;SDS011;23697;48.684;9.032;2022-07-06T11:24:23;6.20;;;3.93;;
37321;SDS011;23697;48.684;9.032;2022-07-06T11:26:51;6.93;;;3.35;;
37321;SDS011;23697;48.684;9.032;2022-07-06T11:29:21;9.38;;;3.80;;
37321;SDS011;23697;48.684;9.032;2022-07-06T11:31:50;10.65;;;3.38;;
37321;SDS011;23697;48.684;9.032;2022-07-06T11:34:19;7.63;;;3.22;;
37321;SDS011;23697;48.684;9.032;2022-07-06T11:36:46;9.27;;;3.67;;
37321;SDS011;23697;48.684;9.032;2022-07-06T11:39:14;9.25;;;3.75;;
37321;SDS011;23697;48.684;9.032;2022-07-06T11:41:41;9.35;;;3.58;;
37321;SDS011;23697;48.684;9.032;2022-07-06T11:44:09;8.32;;;3.80;;
37321;SDS011;23697;48.684;9.032;2022-07-06T11:46:37;8.48;;;3.60;;
37321;SDS011;23697;48.684;9.032;2022-07-06T11:49:04;10.60;;;3.45;;
37321;SDS011;23697;48.684;9.032;2022-07-06T11:51:32;8.05;;;3.80;;
37321;SDS011;23697;48.684;9.032;2022-07-06T11:54:06;11.47;;;3.80;;
37321;SDS011;23697;48.684;9.032;2022-07-06T11:56:35;15.95;;;3.42;;
37321;SDS011;23697;48.684;9.032;2022-07-06T11:59:02;7.47;;;3.50;;
37321;SDS011;23697;48.684;9.032;2022-07-06T12:01:29;8.00;;;3.50;;
37321;SDS011;23697;48.684;9.032;2022-07-06T12:03:59;7.22;;;3.60;;
37321;SDS011;23697;48.684;9.032;2022-07-06T12:06:29;8.23;;;3.25;;
37321;SDS011;23697;48.684;9.032;2022-07-06T12:08:57;6.60;;;3.50;;
37321;SDS011;23697;48.684;9.032;2022-07-06T12:11:26;7.45;;;3.55;;
37321;SDS011;23697;48.684;9.032;2022-07-06T12:13:54;11.23;;;3.58;;
37321;SDS011;23697;48.684;9.032;2022-07-06T12:16:28;6.88;;;3.25;;
37321;SDS011;23697;48.684;9.032;2022-07-06T12:18:56;7.93;;;3.88;;
37321;SDS011;23697;48.684;9.032;2022-07-06T12:21:24;9.45;;;3.50;;
37321;SDS011;23697;48.684;9.032;2022-07-06T12:23:52;6.68;;;3.25;;
37321;SDS011;23697;48.684;9.032;2022-07-06T12:26:21;6.85;;;3.55;;
37321;SDS011;23697;48.684;9.032;2022-07-06T12:29:00;7.82;;;3.28;;
37321;SDS011;23697;48.684;9.032;2022-07-06T12:31:33;7.75;;;3.40;;
37321;SDS011;23697;48.684;9.032;2022-07-06T12:34:00;8.35;;;3.45;;
37321;SDS011;23697;48.684;9.032;2022-07-06T12:36:29;7.20;;;3.50;;
37321;SDS011;23697;48.684;9.032;2022-07-06T12:38:56;11.60;;;3.40;;
37321;SDS011;23697;48.684;9.032;2022-07-06T12:41:27;7.28;;;3.25;;
37321;SDS011;23697;48.684;9.032;2022-07-06T12:44:00;7.72;;;3.30;;
37321;SDS011;23697;48.684;9.032;2022-07-06T12:46:33;9.32;;;3.40;;
37321;SDS011;23697;48.684;9.032;2022-07-06T12:49:02;6.72;;;3.10;;
37321;SDS011;23697;48.684;9.032;2022-07-06T12:51:53;10.32;;;3.80;;
37321;SDS011;23697;48.684;9.032;2022-07-06T12:54:22;8.20;;;3.33;;
37321;SDS011;23697;48.684;9.032;2022-07-06T12:59:44;8.18;;;2.90;;
37321;SDS011;23697;48.684;9.032;2022-07-06T13:02:30;9.38;;;3.15;;
37321;SDS011;23697;48.684;9.032;2022-07-06T13:04:59;9.80;;;2.90;;
37321;SDS011;23697;48.684;9.032;2022-07-06T13:07:29;6.07;;;2.90;;
37321;SDS011;23697;48.684;9.032;2022-07-06T13:09:57;6.90;;;3.00;;
37321;SDS011;23697;48.684;9.032;2022-07-06T13:12:24;7.30;;;2.97;;
37321;SDS011;23697;48.684;9.032;2022-07-06T13:14:51;7.60;;;3.00;;
37321;SDS011;23697;48.684;9.032;2022-07-06T13:17:18;6.18;;;2.53;;
37321;SDS011;23697;48.684;9.032;2022-07-06T13:19:45;7.30;;;2.80;;
37321;SDS011;23697;48.684;9.032;2022-07-06T13:22:12;8.13;;;2.72;;
37321;SDS011;23697;48.684;9.032;2022-07-06T13:24:41;6.20;;;2.80;;
37321;SDS011;23697;48.684;9.032;2022-07-06T13:27:08;7.38;;;2.92;;
37321;SDS011;23697;48.684;9.032;2022-07-06T13:29:35;7.07;;;2.80;;
37321;SDS011;23697;48.684;9.032;2022-07-06T13:32:02;6.22;;;3.00;;
37321;SDS011;23697;48.684;9.032;2022-07-06T13:34:30;8.57;;;3.10;;
37321;SDS011;23697;48.684;9.032;2022-07-06T13:36:57;5.35;;;2.80;;
37321;SDS011;23697;48.684;9.032;2022-07-06T13:39:24;7.05;;;2.78;;
37321;SDS011;23697;48.684;9.032;2022-07-06T13:41:54;6.95;;;3.00;;
37321;SDS011;23697;48.684;9.032;2022-07-06T13:44:21;5.93;;;2.50;;
37321;SDS011;23697;48.684;9.032;2022-07-06T13:46:48;6.63;;;2.83;;
37321;SDS011;23697;48.684;9.032;2022-07-06T13:49:15;8.63;;;2.50;;
37321;SDS011;23697;48.684;9.032;2022-07-06T13:51:42;7.72;;;2.70;;
37321;SDS011;23697;48.684;9.032;2022-07-06T13:54:09;7.47;;;2.60;;
37321;SDS011;23697;48.684;9.032;2022-07-06T13:56:36;7.20;;;2.60;;
37321;SDS011;23697;48.684;9.032;2022-07-06T13:59:05;5.38;;;2.78;;
37321;SDS011;23697;48.684;9.032;2022-07-06T14:01:32;4.65;;;2.60;;
37321;SDS011;23697;48.684;9.032;2022-07-06T14:03:59;7.38;;;2.72;;
37321;SDS011;23697;48.684;9.032;2022-07-06T14:06:26;6.43;;;2.65;;
37321;SDS011;23697;48.684;9.032;2022-07-06T14:08:52;4.72;;;2.40;;
37321;SDS011;23697;48.684;9.032;2022-07-06T14:11:19;6.43;;;2.50;;
37321;SDS011;23697;48.684;9.032;2022-07-06T14:13:46;7.97;;;2.72;;
37321;SDS011;23697;48.684;9.032;2022-07-06T14:16:14;6.68;;;2.35;;
37321;SDS011;23697;48.684;9.032;2022-07-06T14:18:41;5.60;;;2.60;;
37321;SDS011;23697;48.684;9.032;2022-07-06T14:21:10;5.63;;;2.50;;
37321;SDS011;23697;48.684;9.032;2022-07-06T14:23:39;4.85;;;2.40;;
37321;SDS011;23697;48.684;9.032;2022-07-06T14:26:06;7.75;;;2.50;;
37321;SDS011;23697;48.684;9.032;2022-07-06T14:28:33;4.22;;;2.15;;
37321;SDS011;23697;48.684;9.032;2022-07-06T14:31:01;4.50;;;2.30;;
37321;SDS011;23697;48.684;9.032;2022-07-06T14:33:29;6.70;;;2.50;;
37321;SDS011;23697;48.684;9.032;2022-07-06T14:35:56;4.65;;;2.08;;
37321;SDS011;23697;48.684;9.032;2022-07-06T14:38:26;5.68;;;2.20;;
37321;SDS011;23697;48.684;9.032;2022-07-06T14:40:53;6.18;;;2.40;;
37321;SDS011;23697;48.684;9.032;2022-07-06T14:43:20;4.50;;;2.15;;
37321;SDS011;23697;48.684;9.032;2022-07-06T14:45:47;4.75;;;2.30;;
37321;SDS011;23697;48.684;9.032;2022-07-06T14:48:14;5.13;;;2.20;;
37321;SDS011;23697;48.684;9.032;2022-07-06T14:50:42;5.63;;;2.10;;
37321;SDS011;23697;48.684;9.032;2022-07-06T14:53:09;6.15;;;2.30;;
37321;SDS011;23697;48.684;9.032;2022-07-06T14:55:36;6.63;;;2.35;;
37321;SDS011;23697;48.684;9.032;2022-07-06T14:58:03;4.05;;;2.00;;
37321;SDS011;23697;48.684;9.032;2022-07-06T15:00:30;6.35;;;2.47;;